• Join FlightAware (Why Join?)
  • Login
  • US Flag 
06:52PM EST


 

Airport Tracker/Info


-or-


 

Live Flight TrackerFlight Track Log ✈ ASA864 ✈ 24-Apr-2013 ✈ PHNL - KSEA

Flight Track Log - Related Links

Times and Time Zones

All times are in EDT time to prevent confusion due to time zone crossing. See the ASA864 flight status page for this flight to view local times or setup timezone preferences in your user account.

Time Position Orientation Groundspeed Altitude Reporting Facility
EDT Latitude Longitude Course Direction KTS MPH feet Rate Location/Type
02:13PM 21.3167 -157.8833 148° Southeast 190 219 1,300  Level Honolulu Center
02:14PM 21.2667 -157.8500 148° Southeast 240 276 3,100 1,680 Climbing Honolulu Center
02:15PM 21.2000 -157.8167 155° Southeast 270 311 4,800 1,740 Climbing Honolulu Center
02:16PM 21.2000 -157.7333 90° East 280 322 6,600 1,740 Climbing Honolulu Center
02:17PM 21.2333 -157.6500 67° East 300 345 8,300 1,800 Climbing Honolulu Center
02:18PM 21.3000 -157.6000 35° Northeast 310 357 10,200 1,620 Climbing Honolulu Center
02:19PM 21.3833 -157.5667 20° North 330 380 11,600 1,800 Climbing Honolulu Center
02:20PM 21.4667 -157.5167 29° Northeast 350 403 13,800 2,160 Climbing Honolulu Center
02:21PM 21.5500 -157.4667 29° Northeast 360 414 16,000 1,980 Climbing Honolulu Center
02:22PM 21.6500 -157.4167 25° Northeast 370 426 17,900 1,860 Climbing Honolulu Center
02:23PM 21.7333 -157.3667 29° Northeast 380 437 19,800 1,740 Climbing Honolulu Center
02:24PM 21.8333 -157.3000 32° Northeast 400 460 21,400 1,080 Climbing Honolulu Center
02:25PM 21.9167 -157.2000 48° Northeast 420 483 22,000 600 Climbing Honolulu Center
02:26PM 22.0000 -157.1167 43° Northeast 450 518 22,600 840 Climbing Honolulu Center
02:27PM 22.1000 -157.0167 43° Northeast 470 541 23,700 1,200 Climbing Honolulu Center
02:28PM 22.2000 -156.9167 43° Northeast 480 552 25,000 1,080 Climbing Honolulu Center
02:29PM 22.3000 -156.8167 43° Northeast 490 564 25,900 900 Climbing Honolulu Center
02:30PM 22.4000 -156.7500 32° Northeast 500 575 26,800 1,140 Climbing Honolulu Center
02:31PM 22.5500 -156.7333 North 480 552 28,200 1,500 Climbing Honolulu Center
02:32PM 22.6833 -156.7167 North 480 552 29,900 1,500 Climbing Honolulu Center
02:33PM 22.8167 -156.7000 North 470 541 31,300 1,200 Climbing Honolulu Center
02:34PM 22.9333 -156.6833 North 460 529 32,400 960 Climbing Honolulu Center
02:35PM 23.0667 -156.6667 North 460 529 33,300 840 Climbing Honolulu Center
02:36PM 23.2000 -156.6500 North 450 518 34,100 840 Climbing Honolulu Center
02:37PM 23.3167 -156.6500 360° North 450 518 35,000 420 Climbing Honolulu Center
02:38PM 23.4500 -156.6333 North 450 518 35,000  Level Honolulu Center
02:39PM 23.5667 -156.6167 North 450 518 35,000  Level Honolulu Center
02:40PM 23.7000 -156.6000 North 450 518 35,000  Level Honolulu Center
02:41PM 23.8167 -156.5833 North 450 518 35,000  Level Honolulu Center
02:44PM 24.0443 -156.5551 North  Level FlightAware Approximate
02:51PM 24.9296 -156.4445 North  Level FlightAware Approximate
02:52PM 25.0560 -156.4285 North  Level FlightAware Approximate
02:53PM 25.1827 -156.4167 North  Level FlightAware Approximate
02:54PM 25.2776 -156.3232 42° Northeast  Level FlightAware Approximate
02:54PM 25.2000 -156.4167 42° Northeast 475 547 35,000  Level Oakland Oceanic (ODAPS)
02:55PM 25.3723 -156.2290 42° Northeast  Level FlightAware Approximate
02:56PM 25.4669 -156.1348 42° Northeast  Level FlightAware Approximate
02:57PM 25.5614 -156.0403 42° Northeast  Level FlightAware Approximate
02:58PM 25.6552 -155.9465 42° Northeast  Level FlightAware Approximate
02:59PM 25.7491 -155.8522 42° Northeast  Level FlightAware Approximate
03:00PM 25.8430 -155.7579 42° Northeast  Level FlightAware Approximate
03:01PM 26.0822 -155.5333 42° Northeast 475 547 35,000  Level FlightAware Transoceanic
03:02PM 26.1799 -155.4343 42° Northeast 475 547 35,000  Level FlightAware Transoceanic
03:03PM 26.2776 -155.3352 42° Northeast 475 547 35,000  Level FlightAware Transoceanic
03:04PM 26.3751 -155.2359 42° Northeast 475 547 35,000  Level FlightAware Transoceanic
03:05PM 26.4726 -155.1364 42° Northeast 475 547 35,000  Level FlightAware Transoceanic
03:06PM 26.5700 -155.0368 42° Northeast 475 547 35,000  Level FlightAware Transoceanic
03:07PM 26.6674 -154.9370 43° Northeast 475 547 35,000  Level FlightAware Transoceanic
03:08PM 26.7647 -154.8370 43° Northeast 475 547 35,000  Level FlightAware Transoceanic
03:09PM 26.8619 -154.7369 43° Northeast 475 547 35,000  Level FlightAware Transoceanic
03:10PM 26.9590 -154.6365 43° Northeast 475 547 35,000  Level FlightAware Transoceanic
03:11PM 27.0561 -154.5361 43° Northeast 475 547 35,000  Level FlightAware Transoceanic
03:12PM 27.1531 -154.4354 43° Northeast 475 547 35,000  Level FlightAware Transoceanic
03:13PM 27.2500 -154.3345 43° Northeast 475 547 35,000  Level FlightAware Transoceanic
03:14PM 27.3469 -154.2335 43° Northeast 475 547 35,000  Level FlightAware Transoceanic
03:15PM 27.4437 -154.1323 43° Northeast 475 547 35,000  Level FlightAware Transoceanic
03:16PM 27.5404 -154.0310 43° Northeast 475 547 35,000  Level FlightAware Transoceanic
03:17PM 27.6370 -153.9294 43° Northeast 475 547 35,000  Level FlightAware Transoceanic
03:18PM 27.7336 -153.8277 43° Northeast 475 547 35,000  Level FlightAware Transoceanic
03:19PM 27.8300 -153.7258 43° Northeast 475 547 35,000  Level FlightAware Transoceanic
03:20PM 27.9265 -153.6237 43° Northeast 475 547 35,000  Level FlightAware Transoceanic
03:21PM 28.0228 -153.5214 43° Northeast 475 547 35,000  Level FlightAware Transoceanic
03:22PM 28.1191 -153.4189 43° Northeast 475 547 35,000  Level FlightAware Transoceanic
03:23PM 28.2152 -153.3163 43° Northeast 475 547 35,000  Level FlightAware Transoceanic
03:24PM 28.3113 -153.2135 43° Northeast 475 547 35,000  Level FlightAware Transoceanic
03:25PM 28.4074 -153.1105 43° Northeast 475 547 35,000  Level FlightAware Transoceanic
03:26PM 28.5033 -153.0073 43° Northeast 475 547 35,000  Level FlightAware Transoceanic
03:27PM 28.5992 -152.9039 43° Northeast 475 547 35,000  Level FlightAware Transoceanic
03:28PM 28.6950 -152.8003 44° Northeast 475 547 35,000  Level FlightAware Transoceanic
03:29PM 28.7907 -152.6965 44° Northeast 475 547 35,000  Level FlightAware Transoceanic
03:30PM 28.8864 -152.5926 44° Northeast 475 547 35,000  Level FlightAware Transoceanic
03:31PM 28.9819 -152.4884 44° Northeast 475 547 35,000  Level FlightAware Transoceanic
03:32PM 29.0774 -152.3841 44° Northeast 475 547 35,000  Level FlightAware Transoceanic
03:33PM 29.1728 -152.2796 44° Northeast 475 547 35,000  Level FlightAware Transoceanic
03:34PM 29.2681 -152.1748 44° Northeast 475 547 35,000  Level FlightAware Transoceanic
03:35PM 29.3633 -152.0699 44° Northeast 475 547 35,000  Level FlightAware Transoceanic
03:36PM 29.4585 -151.9648 44° Northeast 475 547 35,000  Level FlightAware Transoceanic
03:37PM 29.5536 -151.8595 44° Northeast 475 547 35,000  Level FlightAware Transoceanic
03:38PM 29.6485 -151.7540 44° Northeast 475 547 35,000  Level FlightAware Transoceanic
03:39PM 29.7434 -151.6483 44° Northeast 475 547 35,000  Level FlightAware Transoceanic
03:40PM 29.8382 -151.5423 44° Northeast 475 547 35,000  Level FlightAware Transoceanic
03:41PM 29.9330 -151.4362 44° Northeast 475 547 35,000  Level FlightAware Transoceanic
03:42PM 30.0276 -151.3299 44° Northeast 475 547 35,000  Level FlightAware Transoceanic
03:43PM 30.1222 -151.2234 44° Northeast 475 547 35,000  Level FlightAware Transoceanic
03:44PM 30.2167 -151.1167 44° Northeast 475 547 35,000  Level FlightAware Transoceanic
03:45PM 30.3130 -151.0074 44° Northeast 475 547 35,000  Level FlightAware Transoceanic
03:46PM 30.4092 -150.8980 44° Northeast 475 547 35,000  Level FlightAware Transoceanic
03:46PM 30.2167 -151.1167 44° Northeast 485 558 35,000  Level Oakland Oceanic (ODAPS)
03:47PM 30.5053 -150.7883 45° Northeast 475 547 35,000  Level FlightAware Transoceanic
03:48PM 30.6013 -150.6785 45° Northeast 475 547 35,000  Level FlightAware Transoceanic
03:49PM 30.6972 -150.5684 45° Northeast 475 547 35,000  Level FlightAware Transoceanic
03:50PM 30.7931 -150.4581 45° Northeast 475 547 35,000  Level FlightAware Transoceanic
03:51PM 30.8888 -150.3475 45° Northeast 475 547 35,000  Level FlightAware Transoceanic
03:52PM 30.9844 -150.2368 45° Northeast 475 547 35,000  Level FlightAware Transoceanic
03:53PM 30.9844 -150.2368 45° Northeast 485 558 35,000  Level FlightAware Transoceanic
03:54PM 31.0800 -150.1258 45° Northeast 485 558 35,000  Level FlightAware Transoceanic
03:55PM 31.1754 -150.0146 45° Northeast 485 558 35,000  Level FlightAware Transoceanic
03:56PM 31.2708 -149.9032 45° Northeast 485 558 35,000  Level FlightAware Transoceanic
03:57PM 31.3661 -149.7916 45° Northeast 485 558 35,000  Level FlightAware Transoceanic
03:58PM 31.4612 -149.6797 45° Northeast 485 558 35,000  Level FlightAware Transoceanic
03:59PM 31.5563 -149.5676 45° Northeast 485 558 35,000  Level FlightAware Transoceanic
04:00PM 31.6513 -149.4553 45° Northeast 485 558 35,000  Level FlightAware Transoceanic
04:01PM 31.7461 -149.3427 45° Northeast 485 558 35,000  Level FlightAware Transoceanic
04:02PM 31.8409 -149.2299 45° Northeast 485 558 35,000  Level FlightAware Transoceanic
04:03PM 31.9356 -149.1169 45° Northeast 485 558 35,000  Level FlightAware Transoceanic
04:04PM 32.0302 -149.0037 45° Northeast 485 558 35,000  Level FlightAware Transoceanic
04:05PM 32.1246 -148.8902 46° Northeast 485 558 35,000  Level FlightAware Transoceanic
04:06PM 32.2190 -148.7765 46° Northeast 485 558 35,000  Level FlightAware Transoceanic
04:07PM 32.3133 -148.6625 46° Northeast 485 558 35,000  Level FlightAware Transoceanic
04:08PM 32.4075 -148.5483 46° Northeast 485 558 35,000  Level FlightAware Transoceanic
04:09PM 32.5015 -148.4339 46° Northeast 485 558 35,000  Level FlightAware Transoceanic
04:10PM 32.5955 -148.3192 46° Northeast 485 558 35,000  Level FlightAware Transoceanic
04:11PM 32.6893 -148.2043 46° Northeast 485 558 35,000  Level FlightAware Transoceanic
04:12PM 32.7831 -148.0891 46° Northeast 485 558 35,000  Level FlightAware Transoceanic
04:13PM 32.8767 -147.9737 46° Northeast 485 558 35,000  Level FlightAware Transoceanic
04:14PM 32.9703 -147.8581 46° Northeast 485 558 35,000  Level FlightAware Transoceanic
04:15PM 33.0637 -147.7422 46° Northeast 485 558 35,000  Level FlightAware Transoceanic
04:16PM 33.1570 -147.6261 46° Northeast 485 558 35,000  Level FlightAware Transoceanic
04:17PM 33.2502 -147.5097 46° Northeast 485 558 35,000  Level FlightAware Transoceanic
04:18PM 33.3433 -147.3931 46° Northeast 485 558 35,000  Level FlightAware Transoceanic
04:19PM 33.4364 -147.2762 46° Northeast 485 558 35,000  Level FlightAware Transoceanic
04:20PM 33.5292 -147.1591 46° Northeast 485 558 35,000  Level FlightAware Transoceanic
04:21PM 33.6220 -147.0417 47° Northeast 485 558 35,000  Level FlightAware Transoceanic
04:22PM 33.7147 -146.9241 47° Northeast 485 558 35,000  Level FlightAware Transoceanic
04:23PM 33.8072 -146.8062 47° Northeast 485 558 35,000  Level FlightAware Transoceanic
04:24PM 33.8997 -146.6880 47° Northeast 485 558 35,000  Level FlightAware Transoceanic
04:25PM 33.9920 -146.5696 47° Northeast 485 558 35,000  Level FlightAware Transoceanic
04:26PM 34.0842 -146.4510 47° Northeast 485 558 35,000  Level FlightAware Transoceanic
04:27PM 34.1763 -146.3320 47° Northeast 485 558 35,000  Level FlightAware Transoceanic
04:28PM 34.2683 -146.2129 47° Northeast 485 558 35,000  Level FlightAware Transoceanic
04:29PM 34.3602 -146.0934 47° Northeast 485 558 35,000  Level FlightAware Transoceanic
04:30PM 34.4520 -145.9738 47° Northeast 485 558 35,000  Level FlightAware Transoceanic
04:31PM 34.5436 -145.8538 47° Northeast 485 558 35,000  Level FlightAware Transoceanic
04:32PM 34.6351 -145.7336 47° Northeast 485 558 35,000  Level FlightAware Transoceanic
04:33PM 34.7265 -145.6131 47° Northeast 485 558 35,000  Level FlightAware Transoceanic
04:34PM 34.8178 -145.4923 47° Northeast 485 558 35,000  Level FlightAware Transoceanic
04:35PM 34.9090 -145.3713 47° Northeast 485 558 35,000  Level FlightAware Transoceanic
04:36PM 35.0000 -145.2500 48° Northeast 485 558 35,000  Level FlightAware Transoceanic
04:37PM 35.0877 -145.1325 48° Northeast 485 558 35,000  Level FlightAware Transoceanic
04:38PM 35.1753 -145.0147 48° Northeast 485 558 35,000  Level FlightAware Transoceanic
04:38PM 35.0000 -145.2500 48° Northeast 476 548 35,000  Level Oakland Oceanic (ODAPS)
04:39PM 35.2629 -144.8967 48° Northeast 485 558 35,000  Level FlightAware Transoceanic
04:40PM 35.3502 -144.7784 48° Northeast 485 558 35,000  Level FlightAware Transoceanic
04:41PM 35.4375 -144.6598 48° Northeast 485 558 35,000  Level FlightAware Transoceanic
04:42PM 35.5247 -144.5410 48° Northeast 485 558 35,000  Level FlightAware Transoceanic
04:43PM 35.6117 -144.4220 48° Northeast 485 558 35,000  Level FlightAware Transoceanic
04:44PM 35.6986 -144.3026 48° Northeast 485 558 35,000  Level FlightAware Transoceanic
04:45PM 35.7994 -144.1638 48° Northeast 476 548 35,000  Level FlightAware Transoceanic
04:46PM 35.8876 -144.0418 48° Northeast 476 548 35,000  Level FlightAware Transoceanic
04:47PM 35.9757 -143.9195 48° Northeast 476 548 35,000  Level FlightAware Transoceanic
04:48PM 36.0636 -143.7969 48° Northeast 476 548 35,000  Level FlightAware Transoceanic
04:49PM 36.1515 -143.6741 49° Northeast 476 548 35,000  Level FlightAware Transoceanic
04:50PM 36.2392 -143.5510 49° Northeast 476 548 35,000  Level FlightAware Transoceanic
04:51PM 36.3268 -143.4276 49° Northeast 476 548 35,000  Level FlightAware Transoceanic
04:52PM 36.4142 -143.3039 49° Northeast 476 548 35,000  Level FlightAware Transoceanic
04:53PM 36.5015 -143.1799 49° Northeast 476 548 35,000  Level FlightAware Transoceanic
04:54PM 36.5887 -143.0557 49° Northeast 476 548 35,000  Level FlightAware Transoceanic
04:55PM 36.6758 -142.9312 49° Northeast 476 548 35,000  Level FlightAware Transoceanic
04:56PM 36.7628 -142.8064 49° Northeast 476 548 35,000  Level FlightAware Transoceanic
04:57PM 36.8496 -142.6813 49° Northeast 476 548 35,000  Level FlightAware Transoceanic
04:58PM 36.9363 -142.5560 49° Northeast 476 548 35,000  Level FlightAware Transoceanic
04:59PM 37.0228 -142.4303 49° Northeast 476 548 35,000  Level FlightAware Transoceanic
05:00PM 37.1092 -142.3044 49° Northeast 476 548 35,000  Level FlightAware Transoceanic
05:01PM 37.1955 -142.1782 49° Northeast 476 548 35,000  Level FlightAware Transoceanic
05:02PM 37.2817 -142.0517 49° Northeast 476 548 35,000  Level FlightAware Transoceanic
05:03PM 37.3677 -141.9249 50° Northeast 476 548 35,000  Level FlightAware Transoceanic
05:04PM 37.4536 -141.7978 50° Northeast 476 548 35,000  Level FlightAware Transoceanic
05:05PM 37.5393 -141.6704 50° Northeast 476 548 35,000  Level FlightAware Transoceanic
05:06PM 37.6249 -141.5427 50° Northeast 476 548 35,000  Level FlightAware Transoceanic
05:07PM 37.7104 -141.4147 50° Northeast 476 548 35,000  Level FlightAware Transoceanic
05:08PM 37.7957 -141.2865 50° Northeast 476 548 35,000  Level FlightAware Transoceanic
05:09PM 37.8809 -141.1579 50° Northeast 476 548 35,000  Level FlightAware Transoceanic
05:10PM 37.9659 -141.0291 50° Northeast 476 548 35,000  Level FlightAware Transoceanic
05:11PM 38.0508 -140.8999 50° Northeast 476 548 35,000  Level FlightAware Transoceanic
05:12PM 38.1356 -140.7704 50° Northeast 476 548 35,000  Level FlightAware Transoceanic
05:13PM 38.2202 -140.6407 50° Northeast 476 548 35,000  Level FlightAware Transoceanic
05:14PM 38.3047 -140.5106 50° Northeast 476 548 35,000  Level FlightAware Transoceanic
05:15PM 38.3891 -140.3803 51° Northeast 476 548 35,000  Level FlightAware Transoceanic
05:16PM 38.4733 -140.2496 51° Northeast 476 548 35,000  Level FlightAware Transoceanic
05:17PM 38.5573 -140.1186 51° Northeast 476 548 35,000  Level FlightAware Transoceanic
05:18PM 38.6412 -139.9874 51° Northeast 476 548 35,000  Level FlightAware Transoceanic
05:19PM 38.7249 -139.8558 51° Northeast 476 548 35,000  Level FlightAware Transoceanic
05:20PM 38.8086 -139.7239 51° Northeast 476 548 35,000  Level FlightAware Transoceanic
05:21PM 38.8920 -139.5917 51° Northeast 476 548 35,000  Level FlightAware Transoceanic
05:22PM 38.9753 -139.4592 51° Northeast 476 548 35,000  Level FlightAware Transoceanic
05:23PM 39.0585 -139.3263 51° Northeast 476 548 35,000  Level FlightAware Transoceanic
05:24PM 39.1415 -139.1932 51° Northeast 476 548 35,000  Level FlightAware Transoceanic
05:25PM 39.2243 -139.0597 51° Northeast 476 548 35,000  Level FlightAware Transoceanic
05:26PM 39.3070 -138.9260 51° Northeast 476 548 35,000  Level FlightAware Transoceanic
05:27PM 39.3896 -138.7919 52° Northeast 476 548 35,000  Level FlightAware Transoceanic
05:28PM 39.4720 -138.6575 52° Northeast 476 548 35,000  Level FlightAware Transoceanic
05:29PM 39.5542 -138.5228 52° Northeast 476 548 35,000  Level FlightAware Transoceanic
05:30PM 39.6363 -138.3877 52° Northeast 476 548 35,000  Level FlightAware Transoceanic
05:31PM 39.7182 -138.2523 52° Northeast 476 548 35,000  Level FlightAware Transoceanic
05:32PM 39.8000 -138.1167 52° Northeast 476 548 35,000  Level FlightAware Transoceanic
05:33PM 39.8762 -137.9899 52° Northeast 476 548 35,000  Level FlightAware Transoceanic
05:34PM 39.9522 -137.8628 52° Northeast 476 548 35,000  Level FlightAware Transoceanic
05:35PM 40.0281 -137.7355 52° Northeast 476 548 35,000 660 Level FlightAware Transoceanic
05:35PM 39.8000 -138.1167 52° Northeast 446 513 36,000  Climbing Oakland Oceanic (ODAPS)
05:36PM 40.1038 -137.6079 52° Northeast 476 548 35,000 -660 Descending FlightAware Transoceanic
05:37PM 40.1794 -137.4800 52° Northeast 476 548 35,000  Level FlightAware Transoceanic
05:38PM 40.2549 -137.3518 52° Northeast 476 548 35,000  Level FlightAware Transoceanic
05:39PM 40.3302 -137.2233 52° Northeast 476 548 35,000  Level FlightAware Transoceanic
05:40PM 40.4054 -137.0945 53° Northeast 476 548 35,000 480 Level FlightAware Transoceanic
05:41PM 40.3302 -137.2233 52° Northeast 446 513 36,000 480 Climbing FlightAware Transoceanic
05:42PM 40.4054 -137.0945 53° Northeast 446 513 36,000  Level FlightAware Transoceanic
05:43PM 40.4804 -136.9655 53° Northeast 446 513 36,000  Level FlightAware Transoceanic
05:44PM 40.5553 -136.8361 53° Northeast 446 513 36,000  Level FlightAware Transoceanic
05:45PM 40.6300 -136.7065 53° Northeast 446 513 36,000  Level FlightAware Transoceanic
05:46PM 40.7046 -136.5766 53° Northeast 446 513 36,000  Level FlightAware Transoceanic
05:47PM 40.7791 -136.4464 53° Northeast 446 513 36,000  Level FlightAware Transoceanic
05:48PM 40.8534 -136.3159 53° Northeast 446 513 36,000  Level FlightAware Transoceanic
05:49PM 40.9275 -136.1851 53° Northeast 446 513 36,000  Level FlightAware Transoceanic
05:50PM 41.0015 -136.0540 53° Northeast 446 513 36,000  Level FlightAware Transoceanic
05:51PM 41.0754 -135.9226 53° Northeast 446 513 36,000  Level FlightAware Transoceanic
05:52PM 41.1491 -135.7909 53° Northeast 446 513 36,000  Level FlightAware Transoceanic
05:53PM 41.2227 -135.6590 54° Northeast 446 513 36,000  Level FlightAware Transoceanic
05:54PM 41.2961 -135.5267 54° Northeast 446 513 36,000  Level FlightAware Transoceanic
05:55PM 41.3694 -135.3941 54° Northeast 446 513 36,000  Level FlightAware Transoceanic
05:56PM 41.4425 -135.2612 54° Northeast 446 513 36,000  Level FlightAware Transoceanic
05:57PM 41.5154 -135.1281 54° Northeast 446 513 36,000  Level FlightAware Transoceanic
05:58PM 41.5882 -134.9946 54° Northeast 446 513 36,000  Level FlightAware Transoceanic
05:59PM 41.6609 -134.8608 54° Northeast 446 513 36,000  Level FlightAware Transoceanic
06:00PM 41.7333 -134.7268 54° Northeast 446 513 36,000  Level FlightAware Transoceanic
06:01PM 41.8057 -134.5924 54° Northeast 446 513 36,000  Level FlightAware Transoceanic
06:02PM 41.8779 -134.4577 54° Northeast 446 513 36,000  Level FlightAware Transoceanic
06:03PM 41.9499 -134.3227 54° Northeast 446 513 36,000  Level FlightAware Transoceanic
06:04PM 42.0217 -134.1875 54° Northeast 446 513 36,000  Level FlightAware Transoceanic
06:05PM 42.0934 -134.0519 55° Northeast 446 513 36,000  Level FlightAware Transoceanic
06:06PM 42.1650 -133.9160 55° Northeast 446 513 36,000  Level FlightAware Transoceanic
06:07PM 42.2364 -133.7798 55° Northeast 446 513 36,000  Level FlightAware Transoceanic
06:08PM 42.3076 -133.6432 55° Northeast 446 513 36,000  Level FlightAware Transoceanic
06:09PM 42.3786 -133.5064 55° Northeast 446 513 36,000  Level FlightAware Transoceanic
06:10PM 42.4495 -133.3693 55° Northeast 446 513 36,000  Level FlightAware Transoceanic
06:11PM 42.5203 -133.2319 55° Northeast 446 513 36,000  Level FlightAware Transoceanic
06:12PM 42.5908 -133.0941 55° Northeast 446 513 36,000  Level FlightAware Transoceanic
06:13PM 42.6612 -132.9560 55° Northeast 446 513 36,000  Level FlightAware Transoceanic
06:14PM 42.7315 -132.8177 55° Northeast 446 513 36,000  Level FlightAware Transoceanic
06:15PM 42.8015 -132.6790 56° Northeast 446 513 36,000  Level FlightAware Transoceanic
06:16PM 42.8714 -132.5399 56° Northeast 446 513 36,000  Level FlightAware Transoceanic
06:17PM 42.9412 -132.4006 56° Northeast 446 513 36,000  Level FlightAware Transoceanic
06:18PM 43.0107 -132.2610 56° Northeast 446 513 36,000  Level FlightAware Transoceanic
06:19PM 43.0801 -132.1210 56° Northeast 446 513 36,000  Level FlightAware Transoceanic
06:20PM 43.1493 -131.9808 56° Northeast 446 513 36,000  Level FlightAware Transoceanic
06:21PM 43.2184 -131.8402 56° Northeast 446 513 36,000  Level FlightAware Transoceanic
06:22PM 43.2873 -131.6993 56° Northeast 446 513 36,000  Level FlightAware Transoceanic
06:23PM 43.3559 -131.5580 56° Northeast 446 513 36,000  Level FlightAware Transoceanic
06:24PM 43.4245 -131.4165 56° Northeast 446 513 36,000  Level FlightAware Transoceanic
06:25PM 43.4928 -131.2746 56° Northeast 446 513 36,000  Level FlightAware Transoceanic
06:26PM 43.5610 -131.1325 57° Northeast 446 513 36,000  Level FlightAware Transoceanic
06:27PM 43.6290 -130.9899 57° Northeast 446 513 36,000  Level FlightAware Transoceanic
06:28PM 43.6968 -130.8471 57° Northeast 446 513 36,000  Level FlightAware Transoceanic
06:29PM 43.7645 -130.7040 57° Northeast 446 513 36,000  Level FlightAware Transoceanic
06:30PM 43.8319 -130.5605 57° Northeast 446 513 36,000  Level FlightAware Transoceanic
06:31PM 43.8992 -130.4167 57° Northeast 446 513 36,000  Level FlightAware Transoceanic
06:32PM 43.9663 -130.2726 57° Northeast 446 513 36,000  Level FlightAware Transoceanic
06:33PM 44.0333 -130.1281 57° Northeast 446 513 36,000  Level FlightAware Transoceanic
06:34PM 44.1000 -129.9833 58° Northeast 446 513 36,000  Level FlightAware Transoceanic
06:35PM 44.1656 -129.8383 58° Northeast 446 513 36,000  Level FlightAware Transoceanic
06:36PM 44.2311 -129.6929 58° Northeast 446 513 36,000 480 Level FlightAware Transoceanic
06:36PM 44.1000 -129.9833 58° Northeast 425 489 37,000  Climbing Oakland Oceanic (ODAPS)
06:37PM 44.2963 -129.5472 58° Northeast 446 513 36,000 -900 Descending FlightAware Transoceanic
06:38PM 44.3614 -129.4012 58° Northeast 446 513 36,000  Level FlightAware Transoceanic
06:39PM 44.4263 -129.2548 58° Northeast 446 513 36,000  Level FlightAware Transoceanic
06:40PM 44.4910 -129.1081 58° Northeast 446 513 36,000  Level FlightAware Transoceanic
06:41PM 44.5555 -128.9611 58° Northeast 446 513 36,000  Level FlightAware Transoceanic
06:42PM 44.6198 -128.8138 59° Northeast 446 513 36,000 480 Level FlightAware Transoceanic
06:43PM 44.6589 -128.7239 59° Northeast 425 489 37,000 480 Climbing FlightAware Transoceanic
06:44PM 44.7201 -128.5825 59° Northeast 425 489 37,000  Level FlightAware Transoceanic
06:45PM 44.7812 -128.4408 59° Northeast 425 489 37,000  Level FlightAware Transoceanic
06:46PM 44.8421 -128.2988 59° Northeast 425 489 37,000  Level FlightAware Transoceanic
06:47PM 44.9028 -128.1564 59° Northeast 425 489 37,000  Level FlightAware Transoceanic
06:48PM 44.9633 -128.0138 59° Northeast 425 489 37,000  Level FlightAware Transoceanic
06:49PM 45.0237 -127.8709 59° Northeast 425 489 37,000  Level FlightAware Transoceanic
06:49PM 45.0119 -127.8781 60° Northeast 442 509 37,000  Level Seattle Center
06:50PM 45.0838 -127.7277 59° Northeast 425 489 37,000  Level FlightAware Transoceanic
06:50PM 45.0775 -127.7314 58° Northeast 442 509 37,000  Level Seattle Center
06:51PM 45.1438 -127.5842 59° Northeast 425 489 37,000  Level FlightAware Transoceanic
06:51PM 45.1417 -127.5822 59° Northeast 442 509 37,000  Level Seattle Center
06:52PM 45.2037 -127.4403 60° Northeast 425 489 37,000  Level FlightAware Transoceanic
06:52PM 45.2039 -127.4350 59° Northeast 440 506 37,000  Level Seattle Center
06:53PM 45.2633 -127.2962 60° Northeast 425 489 37,000  Level FlightAware Transoceanic
06:53PM 45.2672 -127.2842 59° Northeast 445 512 37,000  Level Seattle Center
06:54PM 45.3227 -127.1518 60° Northeast 425 489 37,000  Level FlightAware Transoceanic
06:54PM 45.3308 -127.1358 59° Northeast 443 510 37,000  Level Seattle Center
06:55PM 45.3942 -126.9889 58° Northeast 438 504 37,000  Level Seattle Center
06:56PM 45.4553 -126.8403 60° Northeast 436 502 37,000  Level Seattle Center
06:57PM 45.5339 -126.6672 57° Northeast 435 501 37,000  Level Seattle Center
06:58PM 45.6094 -126.5364 50° Northeast 429 494 37,000  Level Seattle Center
06:59PM 45.6819 -126.4025 52° Northeast 428 493 37,000  Level Seattle Center
07:00PM 45.7561 -126.2694 51° Northeast 428 493 37,000  Level Seattle Center
07:01PM 45.8317 -126.1344 51° Northeast 433 498 37,000  Level Seattle Center
07:02PM 45.9075 -125.9983 51° Northeast 436 502 37,000  Level Seattle Center
07:03PM 45.9825 -125.8608 52° Northeast 437 503 37,000  Level Seattle Center
07:04PM 46.0572 -125.7233 52° Northeast 438 504 37,000  Level Seattle Center
07:05PM 46.1306 -125.5875 52° Northeast 432 497 37,000  Level Seattle Center
07:06PM 46.2053 -125.4522 51° Northeast 431 496 37,000  Level Seattle Center
07:07PM 46.2781 -125.3150 52° Northeast 431 496 37,000  Level Seattle Center
07:08PM 46.3522 -125.1761 52° Northeast 435 501 37,000  Level Seattle Center
07:09PM 46.4192 -125.0097 60° Northeast 444 511 37,000  Level Seattle Center
07:10PM 46.4503 -124.8369 75° East 448 516 37,000  Level Seattle Center
07:11PM 46.4811 -124.6639 75° East 447 514 37,000 -660 Level Seattle Center
07:12PM 46.5125 -124.4922 75° East 443 510 35,700 -2,100 Descending Seattle Center
07:13PM 46.5439 -124.3158 75° East 450 518 32,800 -2,760 Descending Seattle Center
07:14PM 46.5800 -124.1064 76° East 447 514 30,200 -2,280 Descending Seattle Center
07:15PM 46.6092 -123.9408 76° East 432 497 28,200 -1,980 Descending Seattle Center
07:16PM 46.6364 -123.7806 76° East 415 478 26,200 -2,100 Descending Seattle Center
07:17PM 46.6639 -123.6250 76° East 405 466 24,000 -1,920 Descending Seattle Center
07:18PM 46.6892 -123.4708 77° East 400 460 22,400 -1,620 Descending Seattle Center
07:19PM 46.7142 -123.3217 76° East 389 448 20,800 -1,740 Descending Seattle Center
07:20PM 46.7381 -123.1700 77° East 387 445 18,900 -1,980 Descending Seattle Center
07:21PM 46.7628 -123.0244 76° East 372 428 17,000 -2,040 Descending Seattle Center
07:22PM 46.7886 -122.8625 77° East 363 418 14,800 -1,920 Descending Seattle Center
07:23PM 46.8114 -122.7242 76° East 351 404 13,000 -1,980 Descending Seattle Center
07:24PM 46.8711 -122.6342 46° Northeast 311 358 10,800 -1,560 Descending Seattle Center
07:25PM 46.9378 -122.5397 44° Northeast 310 357 9,900 -1,200 Descending Seattle Center
07:26PM 46.9961 -122.4625 42° Northeast 280 322 8,500 -1,680 Descending Seattle Center
07:27PM 47.0592 -122.4056 32° Northeast 267 307 6,600 -1,140 Descending Seattle Center
07:28PM 47.1175 -122.3542 31° Northeast 235 270 6,300 -600 Descending Seattle Center
07:29PM 47.1733 -122.3300 16° North 201 231 5,400 -960 Descending Seattle Center
07:30PM 47.2267 -122.3206 North 201 231 4,500 -1,080 Descending Seattle Center
07:31PM 47.2886 -122.3192 North 191 220 3,300 -1,020 Descending Seattle Center
07:32PM 47.3372 -122.3186 360° North 177 204 2,400 -900 Descending Seattle Center
07:33PM 47.3819 -122.3200 359° North 155 178 1,500 -840 Descending Seattle Center
07:34PM 47.4217 -122.3178 North 140 161 700 -600 Descending Seattle Center
07:35PM 47.4689 -122.3192 359° North 145 167 300 -420 Descending Seattle Center
07:37PM 47.4499 -122.3118 165° South  Level Estimated